Time;durP1;ratioP1;P1;durP2;ratioP2;P2;SDS_P1;SDS_P2;PMS_P1;PMS_P2;Temp;Humidity;BMP_temperature;BMP_pressure;BME280_temperature;BME280_humidity;BME280_pressure;Samples;Min_cycle;Max_cycle;Signal;HPM_P1;HPM_P2
2021/04/15 00:00:46;;;;;;;1.00;1.00;;;;;;;;;;5010816;28;20255;-62
2021/04/15 00:03:22;;;;;;;1.48;1.48;;;;;;;;;;4994859;28;20179;-62
2021/04/15 00:05:48;;;;;;;0.60;0.60;;;;;;;;;;5011775;28;20181;-63
2021/04/15 00:08:15;;;;;;;2.05;1.95;;;;;;;;;;5012125;28;20185;-63
2021/04/15 00:10:42;;;;;;;1.42;1.35;;;;;;;;;;5011785;28;20216;-63
2021/04/15 00:13:12;;;;;;;0.95;0.95;;;;;;;;;;5027675;28;20200;-63
2021/04/15 00:15:38;;;;;;;1.80;1.70;;;;;;;;;;4994827;28;20180;-63
2021/04/15 00:18:04;;;;;;;2.77;2.67;;;;;;;;;;5018860;28;20247;-63
2021/04/15 00:20:30;;;;;;;2.40;2.25;;;;;;;;;;5031538;28;20457;-63
2021/04/15 00:22:57;;;;;;;1.15;1.13;;;;;;;;;;5014297;28;20242;-63
2021/04/15 00:25:23;;;;;;;1.75;1.65;;;;;;;;;;5031565;28;20177;-63
2021/04/15 00:27:49;;;;;;;1.45;1.35;;;;;;;;;;5031680;28;20278;-63
2021/04/15 00:30:16;;;;;;;6.97;4.70;;;;;;;;;;5031451;28;20219;-63
2021/04/15 00:32:42;;;;;;;1.25;1.25;;;;;;;;;;5031778;28;20200;-63
2021/04/15 00:35:08;;;;;;;2.35;2.08;;;;;;;;;;5031703;28;20208;-63
2021/04/15 00:37:34;;;;;;;2.88;1.45;;;;;;;;;;5031774;28;20199;-63
2021/04/15 00:40:00;;;;;;;3.45;3.15;;;;;;;;;;5031138;28;20173;-63
2021/04/15 00:42:26;;;;;;;3.13;2.83;;;;;;;;;;5031659;28;20180;-63
2021/04/15 00:44:54;;;;;;;1.88;1.77;;;;;;;;;;4997009;28;20244;-63
2021/04/15 00:47:24;;;;;;;3.03;2.92;;;;;;;;;;5011854;28;20832;-63
2021/04/15 00:49:55;;;;;;;2.28;2.08;;;;;;;;;;5011208;28;20184;-63
2021/04/15 00:52:22;;;;;;;1.00;1.00;;;;;;;;;;5011759;28;20537;-63
2021/04/15 00:54:50;;;;;;;4.35;3.53;;;;;;;;;;5011833;28;20469;-63
2021/04/15 00:57:19;;;;;;;2.30;2.17;;;;;;;;;;5011837;28;20687;-63
2021/04/15 00:59:46;;;;;;;1.20;1.20;;;;;;;;;;5011125;28;20181;-62
2021/04/15 01:02:13;;;;;;;1.25;1.25;;;;;;;;;;5011987;28;20174;-63
2021/04/15 01:04:40;;;;;;;1.40;1.38;;;;;;;;;;5011788;28;20209;-63
2021/04/15 01:07:06;;;;;;;3.08;1.90;;;;;;;;;;5011562;28;20170;-63
2021/04/15 01:09:32;;;;;;;1.08;1.08;;;;;;;;;;5011012;28;20169;-63
2021/04/15 01:12:04;;;;;;;2.70;1.95;;;;;;;;;;5012876;28;20200;-63
2021/04/15 01:14:42;;;;;;;1.83;1.73;;;;;;;;;;5015596;28;20196;-63
2021/04/15 01:17:08;;;;;;;1.38;1.38;;;;;;;;;;5015688;28;20211;-62
2021/04/15 01:19:43;;;;;;;4.45;2.95;;;;;;;;;;5016666;28;20177;-62
2021/04/15 01:22:37;;;;;;;1.17;1.17;;;;;;;;;;5035707;28;20612;-63
2021/04/15 01:25:11;;;;;;;1.05;1.05;;;;;;;;;;5035039;28;20282;-63
2021/04/15 01:27:40;;;;;;;2.45;2.25;;;;;;;;;;5035212;28;20202;-61
2021/04/15 01:30:20;;;;;;;1.45;1.45;;;;;;;;;;5034559;28;20544;-62
2021/04/15 01:32:55;;;;;;;1.38;1.38;;;;;;;;;;5035083;28;20230;-63
2021/04/15 01:35:24;;;;;;;2.45;2.45;;;;;;;;;;5035173;28;20188;-63
2021/04/15 01:38:07;;;;;;;1.30;1.30;;;;;;;;;;5035002;28;20179;-63
2021/04/15 01:40:33;;;;;;;1.60;1.50;;;;;;;;;;5034326;28;20176;-62
2021/04/15 01:43:02;;;;;;;2.65;2.50;;;;;;;;;;5017184;28;20238;-63
2021/04/15 01:45:29;;;;;;;0.85;0.85;;;;;;;;;;5034823;28;20195;-63
2021/04/15 01:47:57;;;;;;;1.90;1.45;;;;;;;;;;5034868;28;20204;-63
2021/04/15 01:50:29;;;;;;;1.77;1.67;;;;;;;;;;5034192;28;20228;-63
2021/04/15 01:52:58;;;;;;;1.13;1.13;;;;;;;;;;5034902;28;20199;-63
2021/04/15 01:55:27;;;;;;;1.48;1.48;;;;;;;;;;5034842;28;20262;-63
2021/04/15 01:58:12;;;;;;;1.30;1.30;;;;;;;;;;5016837;28;20203;-62
2021/04/15 02:00:39;;;;;;;1.05;1.05;;;;;;;;;;5034085;28;20168;-63
2021/04/15 02:03:17;;;;;;;1.58;1.48;;;;;;;;;;5034614;28;20184;-62
2021/04/15 02:05:44;;;;;;;1.98;1.88;;;;;;;;;;5034459;28;20188;-62
2021/04/15 02:08:22;;;;;;;1.20;1.20;;;;;;;;;;5034591;28;20239;-63
2021/04/15 02:10:49;;;;;;;0.60;0.60;;;;;;;;;;5033791;28;20225;-63
2021/04/15 02:13:17;;;;;;;3.60;3.40;;;;;;;;;;5034145;28;20294;-63
2021/04/15 02:15:51;;;;;;;0.80;0.80;;;;;;;;;;5034493;28;20254;-63
2021/04/15 02:18:23;;;;;;;0.90;0.90;;;;;;;;;;5034235;28;20187;-63
2021/04/15 02:20:50;;;;;;;1.33;1.33;;;;;;;;;;5003906;28;20220;-63
2021/04/15 02:23:16;;;;;;;2.88;2.67;;;;;;;;;;5012948;28;20176;-63
2021/04/15 02:25:44;;;;;;;2.20;2.07;;;;;;;;;;5014375;28;20526;-63
2021/04/15 02:28:18;;;;;;;2.72;2.63;;;;;;;;;;5014260;28;20434;-63
2021/04/15 02:30:57;;;;;;;4.30;4.00;;;;;;;;;;5013654;28;20181;-63
2021/04/15 02:33:25;;;;;;;1.88;1.80;;;;;;;;;;5014049;28;20214;-63
2021/04/15 02:35:53;;;;;;;2.22;2.03;;;;;;;;;;5014051;28;20251;-63
2021/04/15 02:38:25;;;;;;;1.50;1.40;;;;;;;;;;5014051;28;20211;-63
2021/04/15 02:40:54;;;;;;;1.33;1.33;;;;;;;;;;5013523;28;20205;-60
2021/04/15 02:43:25;;;;;;;8.77;3.08;;;;;;;;;;5013909;28;20204;-63
2021/04/15 02:45:53;;;;;;;1.42;1.35;;;;;;;;;;5014039;28;20207;-63
2021/04/15 02:48:30;;;;;;;3.50;3.20;;;;;;;;;;5013749;28;20740;-63
2021/04/15 02:51:06;;;;;;;2.08;1.98;;;;;;;;;;4995983;28;20750;-63
2021/04/15 02:53:36;;;;;;;0.90;0.90;;;;;;;;;;5013908;28;20712;-63
2021/04/15 02:56:08;;;;;;;2.35;1.83;;;;;;;;;;5013857;28;20185;-63
2021/04/15 02:58:46;;;;;;;5.93;2.85;;;;;;;;;;5022716;28;20546;-63
2021/04/15 03:01:13;;;;;;;1.20;1.20;;;;;;;;;;5033269;28;20652;-63
2021/04/15 03:03:41;;;;;;;3.60;2.35;;;;;;;;;;5032813;28;20571;-63
2021/04/15 03:06:15;;;;;;;1.33;1.33;;;;;;;;;;5022601;28;20183;-63
2021/04/15 03:08:44;;;;;;;1.35;1.30;;;;;;;;;;5033377;28;20720;-63
2021/04/15 03:11:16;;;;;;;2.15;1.73;;;;;;;;;;5032878;28;20200;-63
2021/04/15 03:13:46;;;;;;;0.70;0.70;;;;;;;;;;5033450;28;20220;-62
2021/04/15 03:16:13;;;;;;;0.90;0.90;;;;;;;;;;5033617;28;20171;-62
2021/04/15 03:19:06;;;;;;;4.82;4.57;;;;;;;;;;5015409;28;20177;-64
2021/04/15 03:21:41;;;;;;;1.52;1.52;;;;;;;;;;5008571;28;20198;-63
2021/04/15 03:24:10;;;;;;;1.13;1.13;;;;;;;;;;4995471;28;20227;-62
2021/04/15 03:26:39;;;;;;;1.30;1.30;;;;;;;;;;5012823;28;20181;-60
2021/04/15 03:29:24;;;;;;;3.05;2.90;;;;;;;;;;5012279;28;20219;-63
2021/04/15 03:32:12;;;;;;;1.70;1.70;;;;;;;;;;5012829;28;20188;-64
2021/04/15 03:34:44;;;;;;;1.17;1.17;;;;;;;;;;5011766;28;20771;-61
2021/04/15 03:37:13;;;;;;;1.83;1.50;;;;;;;;;;4994239;28;20206;-64
2021/04/15 03:39:40;;;;;;;1.83;1.75;;;;;;;;;;5011160;28;20607;-64
2021/04/15 03:42:16;;;;;;;3.70;3.38;;;;;;;;;;5011865;28;20176;-62
2021/04/15 03:44:47;;;;;;;1.40;1.30;;;;;;;;;;5011635;28;20200;-63
2021/04/15 03:47:21;;;;;;;1.83;1.75;;;;;;;;;;5011812;28;20181;-64
2021/04/15 03:49:52;;;;;;;0.90;0.90;;;;;;;;;;5011033;28;20169;-64
2021/04/15 03:52:23;;;;;;;0.90;0.90;;;;;;;;;;5011695;28;20256;-62
2021/04/15 03:54:53;;;;;;;3.80;3.22;;;;;;;;;;5011318;28;20620;-64
2021/04/15 03:57:22;;;;;;;2.75;1.48;;;;;;;;;;5011508;28;20177;-64
2021/04/15 03:59:51;;;;;;;1.15;1.15;;;;;;;;;;5027271;28;20175;-64
2021/04/15 04:02:21;;;;;;;2.53;2.42;;;;;;;;;;5031653;28;20539;-63
2021/04/15 04:04:53;;;;;;;1.20;1.20;;;;;;;;;;5031140;28;20195;-63
2021/04/15 04:07:23;;;;;;;2.47;2.38;;;;;;;;;;5030963;28;20180;-64
2021/04/15 04:09:53;;;;;;;1.05;1.05;;;;;;;;;;5030506;28;20199;-63
2021/04/15 04:12:22;;;;;;;1.45;1.45;;;;;;;;;;5049374;28;20194;-63
2021/04/15 04:14:58;;;;;;;2.25;2.15;;;;;;;;;;5050807;28;20217;-63
2021/04/15 04:17:39;;;;;;;1.98;1.88;;;;;;;;;;5032947;28;20213;-64
2021/04/15 04:20:05;;;;;;;1.02;1.02;;;;;;;;;;5050280;28;20181;-63
2021/04/15 04:22:42;;;;;;;1.00;1.00;;;;;;;;;;5050878;28;20198;-64
2021/04/15 04:25:12;;;;;;;1.73;1.70;;;;;;;;;;5050793;28;20218;-64
2021/04/15 04:27:41;;;;;;;1.63;1.58;;;;;;;;;;5050863;28;20521;-64
2021/04/15 04:30:12;;;;;;;1.00;1.00;;;;;;;;;;5049951;28;20170;-64
2021/04/15 04:32:40;;;;;;;3.67;1.45;;;;;;;;;;5037122;28;20547;-63
2021/04/15 04:35:08;;;;;;;2.27;2.17;;;;;;;;;;5012828;28;546368;-64
2021/04/15 04:37:37;;;;;;;1.58;1.58;;;;;;;;;;5031140;28;20286;-63
2021/04/15 04:40:05;;;;;;;1.23;1.23;;;;;;;;;;5030261;28;20548;-62
2021/04/15 04:42:40;;;;;;;1.17;1.17;;;;;;;;;;5030500;28;20682;-63
2021/04/15 04:45:08;;;;;;;1.98;1.98;;;;;;;;;;5030035;28;20238;-64
2021/04/15 04:47:34;;;;;;;1.63;1.55;;;;;;;;;;5030120;28;20182;-64
2021/04/15 04:50:03;;;;;;;1.45;1.35;;;;;;;;;;5030802;28;20184;-63
2021/04/15 04:52:31;;;;;;;4.95;2.85;;;;;;;;;;5031059;28;20269;-64
2021/04/15 04:54:58;;;;;;;2.40;2.30;;;;;;;;;;5030670;28;20203;-63
2021/04/15 04:57:31;;;;;;;3.22;2.92;;;;;;;;;;5029597;28;20176;-62
2021/04/15 05:00:00;;;;;;;1.50;1.40;;;;;;;;;;5027723;28;20179;-63
2021/04/15 05:02:26;;;;;;;1.67;1.58;;;;;;;;;;5017824;28;20207;-63
2021/04/15 05:04:59;;;;;;;0.95;0.95;;;;;;;;;;5029858;28;20200;-63
2021/04/15 05:07:26;;;;;;;2.03;1.95;;;;;;;;;;5030925;28;20180;-62
2021/04/15 05:09:53;;;;;;;9.02;2.50;;;;;;;;;;5029576;28;20536;-63
2021/04/15 05:12:21;;;;;;;1.25;1.25;;;;;;;;;;5031282;28;20241;-63
2021/04/15 05:14:47;;;;;;;2.20;2.15;;;;;;;;;;5031310;28;20246;-63
2021/04/15 05:17:19;;;;;;;1.27;1.27;;;;;;;;;;5030866;28;20191;-63
2021/04/15 05:19:45;;;;;;;2.15;2.03;;;;;;;;;;5029923;28;20207;-63
2021/04/15 05:22:19;;;;;;;1.50;1.45;;;;;;;;;;5030976;28;20172;-63
2021/04/15 05:24:47;;;;;;;3.00;2.20;;;;;;;;;;5031439;28;20219;-63
2021/04/15 05:27:16;;;;;;;2.00;1.90;;;;;;;;;;5030873;28;20208;-63
2021/04/15 05:29:43;;;;;;;2.55;2.35;;;;;;;;;;5030539;28;20172;-63
2021/04/15 05:32:12;;;;;;;1.75;1.65;;;;;;;;;;5031306;28;20175;-63
2021/04/15 05:34:41;;;;;;;1.13;1.13;;;;;;;;;;5031081;28;20219;-63
2021/04/15 05:37:08;;;;;;;2.40;2.22;;;;;;;;;;5031109;28;20245;-63
2021/04/15 05:39:35;;;;;;;2.17;1.55;;;;;;;;;;5030115;28;20180;-63
2021/04/15 05:42:02;;;;;;;2.72;2.55;;;;;;;;;;5031119;28;20172;-63
2021/04/15 05:44:33;;;;;;;1.05;0.85;;;;;;;;;;5031325;28;20699;-63
2021/04/15 05:46:59;;;;;;;0.73;0.73;;;;;;;;;;5033743;28;20184;-64
2021/04/15 05:49:27;;;;;;;4.18;3.88;;;;;;;;;;5030434;28;20171;-63
2021/04/15 05:51:53;;;;;;;1.90;1.80;;;;;;;;;;5031460;28;20239;-62
2021/04/15 05:54:20;;;;;;;1.40;1.40;;;;;;;;;;5031094;28;20684;-63
2021/04/15 05:56:59;;;;;;;3.55;3.25;;;;;;;;;;5030831;28;20184;-63
2021/04/15 05:59:25;;;;;;;6.63;2.05;;;;;;;;;;5033631;28;20713;-62
2021/04/15 06:02:08;;;;;;;3.27;3.07;;;;;;;;;;5033301;28;20180;-63
2021/04/15 06:04:44;;;;;;;3.13;2.83;;;;;;;;;;5034283;28;20544;-62
2021/04/15 06:07:13;;;;;;;2.47;2.38;;;;;;;;;;5034300;28;20232;-62
2021/04/15 06:09:39;;;;;;;1.33;1.33;;;;;;;;;;5033532;28;20178;-62
2021/04/15 06:12:17;;;;;;;3.15;2.78;;;;;;;;;;5016688;28;20239;-64
2021/04/15 06:14:49;;;;;;;1.02;1.02;;;;;;;;;;5034127;28;20279;-62
2021/04/15 06:17:21;;;;;;;0.93;0.93;;;;;;;;;;5034242;28;20229;-63
2021/04/15 06:19:53;;;;;;;1.52;1.45;;;;;;;;;;5033525;28;20187;-63
2021/04/15 06:22:21;;;;;;;0.95;0.95;;;;;;;;;;5034042;28;20172;-63
2021/04/15 06:24:50;;;;;;;1.52;1.35;;;;;;;;;;5034916;28;20831;-62
2021/04/15 06:27:16;;;;;;;28.42;2.70;;;;;;;;;;5034034;28;20180;-63
2021/04/15 06:29:42;;;;;;;1.88;1.77;;;;;;;;;;5033417;28;20231;-63
2021/04/15 06:32:32;;;;;;;1.48;1.40;;;;;;;;;;5034114;28;20671;-63
2021/04/15 06:34:58;;;;;;;1.70;1.60;;;;;;;;;;5021382;28;20569;-63
2021/04/15 06:37:30;;;;;;;0.70;0.70;;;;;;;;;;5016136;28;20176;-63
2021/04/15 06:39:59;;;;;;;1.40;1.40;;;;;;;;;;5033081;28;20179;-63
2021/04/15 06:42:43;;;;;;;1.50;1.50;;;;;;;;;;5016045;28;20207;-63
2021/04/15 06:45:22;;;;;;;0.90;0.90;;;;;;;;;;5033729;28;20189;-63
2021/04/15 06:47:58;;;;;;;1.05;1.05;;;;;;;;;;5033672;28;20182;-63
2021/04/15 06:50:35;;;;;;;0.98;0.98;;;;;;;;;;5033204;28;20710;-63
2021/04/15 06:53:20;;;;;;;3.60;2.35;;;;;;;;;;5033733;28;20229;-63
2021/04/15 06:56:05;;;;;;;1.52;1.45;;;;;;;;;;5033594;28;20181;-63
2021/04/15 06:58:46;;;;;;;0.80;0.80;;;;;;;;;;5015605;28;20660;-63
2021/04/15 07:01:24;;;;;;;0.80;0.80;;;;;;;;;;5033332;28;20177;-63
2021/04/15 07:04:05;;;;;;;2.00;1.90;;;;;;;;;;5033183;28;20356;-63
2021/04/15 07:06:47;;;;;;;1.02;1.02;;;;;;;;;;5033334;28;20672;-60
2021/04/15 07:09:16;;;;;;;1.42;1.33;;;;;;;;;;5032083;28;20200;-63
2021/04/15 07:11:50;;;;;;;1.90;1.83;;;;;;;;;;5033381;28;20176;-61
2021/04/15 07:14:19;;;;;;;1.95;1.85;;;;;;;;;;5033223;28;20218;-63
2021/04/15 07:17:04;;;;;;;0.88;0.88;;;;;;;;;;5033236;28;20208;-62
2021/04/15 07:19:36;;;;;;;1.40;1.33;;;;;;;;;;5032506;28;20656;-62
2021/04/15 07:22:08;;;;;;;1.45;1.45;;;;;;;;;;5033065;28;20227;-64
2021/04/15 07:24:53;;;;;;;2.33;2.22;;;;;;;;;;5032846;28;20247;-63
2021/04/15 07:27:30;;;;;;;1.23;1.13;;;;;;;;;;5033029;28;20176;-64
2021/04/15 07:30:07;;;;;;;0.95;0.95;;;;;;;;;;5032433;28;20222;-64
2021/04/15 07:32:39;;;;;;;1.75;1.65;;;;;;;;;;5032968;28;20184;-64
2021/04/15 07:35:05;;;;;;;2.67;1.05;;;;;;;;;;5032930;28;20790;-64
2021/04/15 07:37:34;;;;;;;1.03;0.87;;;;;;;;;;5031033;28;20176;-64
2021/04/15 07:40:06;;;;;;;2.42;1.98;;;;;;;;;;5031736;28;20475;-64
2021/04/15 07:42:46;;;;;;;1.75;1.75;;;;;;;;;;5032452;28;20192;-63
2021/04/15 07:45:19;;;;;;;1.63;1.40;;;;;;;;;;5032461;28;20680;-64
2021/04/15 07:48:14;;;;;;;1.60;1.50;;;;;;;;;;5032273;28;20173;-64
2021/04/15 07:50:52;;;;;;;1.33;1.33;;;;;;;;;;5014507;28;20189;-62
2021/04/15 07:53:37;;;;;;;1.50;1.50;;;;;;;;;;5032226;28;20228;-63
2021/04/15 07:56:21;;;;;;;2.22;1.40;;;;;;;;;;5032159;28;20189;-64
2021/04/15 07:58:49;;;;;;;1.13;1.08;;;;;;;;;;5031959;28;20221;-62
2021/04/15 08:01:23;;;;;;;1.85;1.50;;;;;;;;;;5032015;28;20177;-64
2021/04/15 08:04:08;;;;;;;1.60;1.58;;;;;;;;;;5031857;28;20207;-64
2021/04/15 08:06:39;;;;;;;2.00;1.90;;;;;;;;;;5031897;28;20675;-64
2021/04/15 08:09:15;;;;;;;7.13;1.48;;;;;;;;;;5031283;28;20283;-64
2021/04/15 08:11:41;;;;;;;1.85;1.75;;;;;;;;;;5032078;28;20706;-62
2021/04/15 08:14:25;;;;;;;1.00;1.00;;;;;;;;;;5031821;28;20212;-64
2021/04/15 08:16:57;;;;;;;2.20;2.00;;;;;;;;;;5031725;28;20258;-63
2021/04/15 08:19:44;;;;;;;0.80;0.80;;;;;;;;;;5031078;28;20184;-62
2021/04/15 08:22:18;;;;;;;2.22;2.13;;;;;;;;;;5031684;28;20184;-63
2021/04/15 08:24:50;;;;;;;1.05;1.05;;;;;;;;;;5013746;28;20303;-63
2021/04/15 08:27:31;;;;;;;3.13;1.35;;;;;;;;;;5031654;28;20868;-63
2021/04/15 08:30:03;;;;;;;1.83;1.67;;;;;;;;;;5031247;28;20644;-63
2021/04/15 08:32:35;;;;;;;1.33;1.23;;;;;;;;;;5031568;28;20608;-64
2021/04/15 08:35:11;;;;;;;2.00;1.83;;;;;;;;;;5031141;28;20648;-64
2021/04/15 08:37:43;;;;;;;1.43;1.20;;;;;;;;;;5031245;28;20403;-64
2021/04/15 08:40:15;;;;;;;2.23;2.03;;;;;;;;;;5013043;28;20470;-64
2021/04/15 08:42:53;;;;;;;1.50;1.40;;;;;;;;;;5031253;28;20403;-64
2021/04/15 08:45:28;;;;;;;2.03;1.83;;;;;;;;;;5031100;28;20431;-64
2021/04/15 08:48:03;;;;;;;2.80;2.20;;;;;;;;;;5031163;28;20404;-64
2021/04/15 08:50:34;;;;;;;2.87;2.10;;;;;;;;;;5030701;28;20410;-64
2021/04/15 08:53:04;;;;;;;3.47;2.30;;;;;;;;;;5031161;28;20400;-64
2021/04/15 08:55:35;;;;;;;2.13;1.93;;;;;;;;;;5031411;28;20399;-64
2021/04/15 08:58:39;;;;;;;1.93;1.10;;;;;;;;;;5013624;28;20393;-64
2021/04/15 09:01:05;;;;;;;1.53;1.43;;;;;;;;;;4950161;29;20427;-64
2021/04/15 09:03:44;;;;;;;2.30;2.10;;;;;;;;;;4950749;28;20475;-64
2021/04/15 09:06:13;;;;;;;2.10;2.00;;;;;;;;;;4995763;28;20422;-64
2021/04/15 09:08:45;;;;;;;2.50;2.30;;;;;;;;;;5031078;28;20389;-64
2021/04/15 09:11:18;;;;;;;2.17;1.60;;;;;;;;;;5030774;28;20381;-64
2021/04/15 09:13:57;;;;;;;2.67;1.80;;;;;;;;;;5031073;28;20806;-64
2021/04/15 09:16:35;;;;;;;3.43;2.33;;;;;;;;;;5031117;28;20425;-64
2021/04/15 09:19:11;;;;;;;2.40;1.80;;;;;;;;;;5030368;28;20386;-64
2021/04/15 09:21:37;;;;;;;1.93;1.47;;;;;;;;;;5031190;28;20418;-64
2021/04/15 09:24:03;;;;;;;1.97;1.87;;;;;;;;;;5030893;28;20433;-64
2021/04/15 09:26:32;;;;;;;1.93;1.83;;;;;;;;;;5030768;28;20469;-64
2021/04/15 09:29:13;;;;;;;1.90;1.50;;;;;;;;;;5030236;28;20438;-64
2021/04/15 09:31:57;;;;;;;1.40;1.30;;;;;;;;;;5030543;28;20404;-64
2021/04/15 09:34:34;;;;;;;1.73;1.63;;;;;;;;;;5034539;28;20796;-64
2021/04/15 09:37:03;;;;;;;2.23;1.70;;;;;;;;;;5035087;28;20446;-64
2021/04/15 09:39:38;;;;;;;1.47;1.37;;;;;;;;;;5034300;28;20411;-64
2021/04/15 09:42:05;;;;;;;2.60;1.60;;;;;;;;;;5034912;28;20388;-64
2021/04/15 09:44:49;;;;;;;1.50;1.40;;;;;;;;;;5034744;28;21055;-64
2021/04/15 09:47:18;;;;;;;2.40;1.87;;;;;;;;;;5015659;28;20423;-64
2021/04/15 09:49:54;;;;;;;1.37;1.27;;;;;;;;;;5033540;28;20453;-64
2021/04/15 09:52:20;;;;;;;1.37;1.27;;;;;;;;;;5034533;28;20377;-64
2021/04/15 09:54:46;;;;;;;1.53;1.43;;;;;;;;;;5034379;28;20414;-64
2021/04/15 09:57:30;;;;;;;1.70;1.00;;;;;;;;;;5034212;28;20793;-64
2021/04/15 09:59:59;;;;;;;1.60;1.50;;;;;;;;;;5033667;28;20457;-64
2021/04/15 10:02:45;;;;;;;1.60;1.20;;;;;;;;;;5034185;28;20433;-64
2021/04/15 10:05:34;;;;;;;1.37;1.10;;;;;;;;;;5034123;28;20468;-64
2021/04/15 10:08:08;;;;;;;1.53;1.43;;;;;;;;;;5016443;28;20423;-64
2021/04/15 10:10:40;;;;;;;1.30;1.20;;;;;;;;;;5033431;28;20412;-63
2021/04/15 10:13:19;;;;;;;1.40;1.30;;;;;;;;;;5034120;28;20423;-63
2021/04/15 10:15:50;;;;;;;1.57;1.47;;;;;;;;;;5033947;28;20915;-63
2021/04/15 10:18:48;;;;;;;1.13;1.13;;;;;;;;;;5033889;28;20408;-63
2021/04/15 10:21:20;;;;;;;0.97;0.97;;;;;;;;;;5000451;28;20415;-63
2021/04/15 10:23:53;;;;;;;2.20;1.17;;;;;;;;;;5033575;28;20537;-63
2021/04/15 10:26:39;;;;;;;1.23;0.93;;;;;;;;;;5033625;28;20416;-63
2021/04/15 10:29:08;;;;;;;1.40;1.15;;;;;;;;;;5002375;28;20840;-63
2021/04/15 10:31:53;;;;;;;2.55;1.88;;;;;;;;;;5033788;28;20589;-63
2021/04/15 10:34:27;;;;;;;1.25;1.05;;;;;;;;;;5034097;28;20247;-64
2021/04/15 10:37:02;;;;;;;1.83;1.63;;;;;;;;;;5034060;28;20571;-63
2021/04/15 10:39:35;;;;;;;4.50;2.20;;;;;;;;;;5033132;28;20211;-64
2021/04/15 10:42:20;;;;;;;1.10;1.10;;;;;;;;;;5033666;28;20188;-64
2021/04/15 10:44:55;;;;;;;3.15;2.10;;;;;;;;;;5032360;28;20235;-63
2021/04/15 10:47:27;;;;;;;1.55;1.45;;;;;;;;;;5033580;28;20204;-64
2021/04/15 10:50:01;;;;;;;0.90;0.90;;;;;;;;;;5032858;28;20169;-64
2021/04/15 10:52:27;;;;;;;0.53;0.53;;;;;;;;;;5033573;28;20258;-64
2021/04/15 10:55:11;;;;;;;1.53;1.13;;;;;;;;;;5033335;28;20441;-64
2021/04/15 10:57:37;;;;;;;2.30;2.10;;;;;;;;;;5033527;28;20903;-64
2021/04/15 11:00:29;;;;;;;2.03;1.63;;;;;;;;;;5032979;28;20393;-64
2021/04/15 11:02:56;;;;;;;1.90;1.50;;;;;;;;;;5030997;28;20462;-64
2021/04/15 11:05:25;;;;;;;4.20;1.60;;;;;;;;;;5015763;28;20458;-64
2021/04/15 11:07:51;;;;;;;2.20;0.98;;;;;;;;;;5033595;28;20411;-63
2021/04/15 11:10:22;;;;;;;1.43;1.10;;;;;;;;;;5032911;28;20261;-63
2021/04/15 11:12:48;;;;;;;1.77;1.67;;;;;;;;;;5033564;28;20400;-63
2021/04/15 11:15:18;;;;;;;1.37;1.27;;;;;;;;;;5033271;28;20425;-63
2021/04/15 11:17:46;;;;;;;0.80;0.80;;;;;;;;;;5033368;28;20486;-63
2021/04/15 11:20:21;;;;;;;1.02;1.02;;;;;;;;;;5032470;28;20437;-63
2021/04/15 11:22:53;;;;;;;2.00;0.83;;;;;;;;;;5033212;28;20651;-63
2021/04/15 11:25:28;;;;;;;1.10;1.10;;;;;;;;;;5033583;28;20490;-63
2021/04/15 11:27:55;;;;;;;1.80;1.45;;;;;;;;;;5033328;28;20407;-63
2021/04/15 11:30:40;;;;;;;2.47;1.02;;;;;;;;;;5032142;28;20176;-63
2021/04/15 11:33:06;;;;;;;1.00;0.90;;;;;;;;;;5032975;28;20252;-63
2021/04/15 11:35:32;;;;;;;0.77;0.73;;;;;;;;;;5033183;28;20541;-63
2021/04/15 11:38:09;;;;;;;2.85;1.38;;;;;;;;;;5032909;28;20718;-63
2021/04/15 11:40:37;;;;;;;1.02;1.02;;;;;;;;;;5032225;28;20228;-63
2021/04/15 11:43:15;;;;;;;1.65;1.55;;;;;;;;;;5032677;28;20235;-63
2021/04/15 11:45:41;;;;;;;0.90;0.90;;;;;;;;;;5032778;28;20225;-64
2021/04/15 11:48:12;;;;;;;1.02;0.93;;;;;;;;;;5032802;28;20191;-63
2021/04/15 11:50:38;;;;;;;1.55;1.15;;;;;;;;;;5031882;28;20208;-63
2021/04/15 11:53:23;;;;;;;2.05;1.38;;;;;;;;;;5032520;28;20180;-63
2021/04/15 11:55:49;;;;;;;1.30;1.20;;;;;;;;;;5032439;28;20180;-63
2021/04/15 11:58:29;;;;;;;1.63;1.23;;;;;;;;;;5032303;28;20180;-63
2021/04/15 12:00:59;;;;;;;1.58;1.33;;;;;;;;;;5031884;28;20827;-63
2021/04/15 12:03:27;;;;;;;0.90;0.90;;;;;;;;;;5030996;28;20205;-63
2021/04/15 12:05:53;;;;;;;1.13;1.02;;;;;;;;;;5032368;28;20516;-63
2021/04/15 12:08:24;;;;;;;1.95;0.85;;;;;;;;;;5032176;28;20231;-63
2021/04/15 12:11:10;;;;;;;0.88;0.82;;;;;;;;;;5031690;28;20200;-63
2021/04/15 12:13:51;;;;;;;0.73;0.73;;;;;;;;;;5032167;28;20220;-63
2021/04/15 12:16:17;;;;;;;1.30;1.10;;;;;;;;;;5032090;28;20795;-63
2021/04/15 12:18:47;;;;;;;0.70;0.70;;;;;;;;;;5031744;28;20387;-63
2021/04/15 12:21:21;;;;;;;0.88;0.88;;;;;;;;;;5031986;28;20773;-63
2021/04/15 12:23:56;;;;;;;1.23;1.20;;;;;;;;;;5032356;28;20267;-63
2021/04/15 12:26:43;;;;;;;0.60;0.60;;;;;;;;;;5032179;28;20252;-63
2021/04/15 12:29:29;;;;;;;1.25;1.08;;;;;;;;;;5031340;28;20407;-63
2021/04/15 12:32:00;;;;;;;1.70;1.60;;;;;;;;;;5031811;28;20173;-63
2021/04/15 12:34:41;;;;;;;1.70;1.23;;;;;;;;;;5031825;28;20634;-63
2021/04/15 12:37:29;;;;;;;2.03;1.08;;;;;;;;;;5031732;28;20243;-63
2021/04/15 12:40:07;;;;;;;0.70;0.70;;;;;;;;;;5031200;28;20637;-63
2021/04/15 12:42:37;;;;;;;1.45;1.20;;;;;;;;;;5031717;28;20188;-63
2021/04/15 12:45:06;;;;;;;0.73;0.60;;;;;;;;;;5031700;28;20199;-63
2021/04/15 12:47:33;;;;;;;0.50;0.50;;;;;;;;;;5031610;28;20230;-63
2021/04/15 12:50:00;;;;;;;1.15;1.05;;;;;;;;;;5030953;28;20637;-63
2021/04/15 12:52:31;;;;;;;1.10;1.10;;;;;;;;;;5031543;28;20173;-63
2021/04/15 12:54:58;;;;;;;1.10;0.95;;;;;;;;;;5031574;28;20189;-63
2021/04/15 12:57:25;;;;;;;1.17;1.08;;;;;;;;;;5031450;28;20172;-63
2021/04/15 12:59:53;;;;;;;1.83;1.73;;;;;;;;;;5031041;28;20177;-63
2021/04/15 13:02:22;;;;;;;1.05;0.88;;;;;;;;;;5031477;28;20172;-63
2021/04/15 13:04:52;;;;;;;1.30;0.88;;;;;;;;;;5031485;28;20212;-63
2021/04/15 13:07:21;;;;;;;0.82;0.82;;;;;;;;;;5030951;28;20176;-63
2021/04/15 13:09:48;;;;;;;1.05;1.05;;;;;;;;;;5030765;28;20177;-63
2021/04/15 13:12:33;;;;;;;1.20;0.90;;;;;;;;;;5031777;28;20248;-62
2021/04/15 13:15:01;;;;;;;0.85;0.85;;;;;;;;;;5031376;28;20192;-62
2021/04/15 13:17:36;;;;;;;1.48;1.38;;;;;;;;;;5031273;28;20184;-62
2021/04/15 13:20:08;;;;;;;3.08;1.20;;;;;;;;;;5030895;28;20168;-62
2021/04/15 13:22:39;;;;;;;0.90;0.90;;;;;;;;;;5031433;28;20180;-65
2021/04/15 13:25:07;;;;;;;1.05;1.05;;;;;;;;;;5031413;28;20188;-62
2021/04/15 13:27:36;;;;;;;3.10;1.65;;;;;;;;;;5031170;28;20184;-64
2021/04/15 13:30:14;;;;;;;1.40;1.30;;;;;;;;;;5030927;28;20255;-64
2021/04/15 13:32:58;;;;;;;0.65;0.65;;;;;;;;;;5031857;28;20200;-62
2021/04/15 13:35:35;;;;;;;0.73;0.73;;;;;;;;;;5031171;28;20264;-62
2021/04/15 13:38:01;;;;;;;1.00;1.00;;;;;;;;;;5031103;28;20259;-64
2021/04/15 13:40:30;;;;;;;1.38;1.27;;;;;;;;;;5030521;28;20180;-64
2021/04/15 13:42:56;;;;;;;0.82;0.82;;;;;;;;;;5030951;28;20197;-64
2021/04/15 13:45:37;;;;;;;3.60;0.98;;;;;;;;;;5031074;28;20591;-64
2021/04/15 13:48:03;;;;;;;0.70;0.70;;;;;;;;;;5030994;28;20652;-64
2021/04/15 13:50:48;;;;;;;0.93;0.93;;;;;;;;;;5030372;28;20165;-62
2021/04/15 13:53:38;;;;;;;0.75;0.75;;;;;;;;;;5031091;28;20246;-64
2021/04/15 13:56:04;;;;;;;0.60;0.60;;;;;;;;;;5030975;28;20548;-63
2021/04/15 13:58:37;;;;;;;1.20;1.00;;;;;;;;;;5030762;28;20537;-63
2021/04/15 14:01:04;;;;;;;0.85;0.80;;;;;;;;;;5030310;28;20235;-64
2021/04/15 14:03:43;;;;;;;0.70;0.70;;;;;;;;;;5030659;28;20627;-64
2021/04/15 14:06:11;;;;;;;0.50;0.50;;;;;;;;;;5031001;28;20169;-64
2021/04/15 14:08:39;;;;;;;1.00;1.00;;;;;;;;;;5030838;28;20188;-64
2021/04/15 14:11:24;;;;;;;1.15;1.15;;;;;;;;;;5030190;28;20181;-64
2021/04/15 14:13:50;;;;;;;0.70;0.70;;;;;;;;;;5030689;28;20587;-64
2021/04/15 14:16:17;;;;;;;0.68;0.68;;;;;;;;;;5030799;28;20259;-64
2021/04/15 14:18:44;;;;;;;1.13;1.13;;;;;;;;;;5031010;28;20176;-64
2021/04/15 14:21:21;;;;;;;1.20;1.13;;;;;;;;;;5034131;28;20176;-64
2021/04/15 14:23:50;;;;;;;1.10;1.10;;;;;;;;;;5033132;28;20843;-64
2021/04/15 14:26:21;;;;;;;0.93;0.93;;;;;;;;;;5033530;28;20529;-64
2021/04/15 14:28:48;;;;;;;0.63;0.63;;;;;;;;;;5033254;28;20215;-63
2021/04/15 14:31:16;;;;;;;1.17;1.17;;;;;;;;;;5015490;28;20177;-64
2021/04/15 14:33:43;;;;;;;1.00;1.00;;;;;;;;;;5033440;28;20215;-64
2021/04/15 14:36:27;;;;;;;1.17;1.08;;;;;;;;;;5033623;28;20579;-64
2021/04/15 14:38:54;;;;;;;0.60;0.60;;;;;;;;;;5032984;28;20184;-64
2021/04/15 14:41:33;;;;;;;0.90;0.90;;;;;;;;;;5033630;28;20219;-64
2021/04/15 14:44:16;;;;;;;1.67;1.55;;;;;;;;;;5015610;28;20242;-64
2021/04/15 14:46:43;;;;;;;1.55;1.00;;;;;;;;;;5033497;28;20653;-64
2021/04/15 14:49:13;;;;;;;0.70;0.70;;;;;;;;;;5032997;28;20169;-64
2021/04/15 14:51:39;;;;;;;1.02;1.02;;;;;;;;;;5033438;28;20257;-64
2021/04/15 14:54:18;;;;;;;1.67;1.58;;;;;;;;;;5033284;28;20223;-64
2021/04/15 14:56:45;;;;;;;2.92;1.88;;;;;;;;;;5033235;28;20644;-64
2021/04/15 14:59:22;;;;;;;0.88;0.88;;;;;;;;;;5032923;28;20573;-64
2021/04/15 15:01:49;;;;;;;1.60;1.50;;;;;;;;;;5014597;28;20259;-64
2021/04/15 15:04:26;;;;;;;1.08;0.95;;;;;;;;;;5033418;28;20207;-64
2021/04/15 15:06:53;;;;;;;1.75;0.77;;;;;;;;;;5033544;28;20616;-64
2021/04/15 15:09:21;;;;;;;0.80;0.80;;;;;;;;;;5032104;28;20753;-64
2021/04/15 15:11:48;;;;;;;1.08;1.05;;;;;;;;;;5033090;28;20884;-64
2021/04/15 15:14:18;;;;;;;1.67;1.23;;;;;;;;;;5033162;28;20208;-64